Alta, Indiana
Current Conditions -  °F | °C
As of 2:15 AM on Friday 31 Oct 2014 (Local Time) from KPRG Reporting Station
Broken Clouds Broken Clouds  
Wind Chill:   Ceiling: 9000
Heat Index:   Visibility: 10mi
Dew Point:   Wind: 3mph
Humidity: 92%   Direction: 340°NNW
Pressure: 30.05"   Gusts: NA
Location:  39.7643°N, 87.4119°W
Report Text: KPRG 310615Z AUTO 34003KT 10SM BKN090 08/06 A3005 RMK AO2 T00750063
Loading
Personal Weather Stations






























Interactive Weather Map
Tropical Storm Tracking
New forecast layout! Learn more

10-Day Weather Forecast

Advertisements
Track Severe Weather on mobile